sensor_id;sensor_type;location;lat;lon;timestamp;pressure;altitude;pressure_sealevel;temperature;humidity
20628;BME280;10473;42.734;24.258;2023-02-22T00:00:26;91691.41;;;10.69;38.08
20628;BME280;10473;42.734;24.258;2023-02-22T00:03:05;91670.16;;;10.59;38.01
20628;BME280;10473;42.734;24.258;2023-02-22T00:05:36;91687.66;;;10.74;37.23
20628;BME280;10473;42.734;24.258;2023-02-22T00:08:06;91698.69;;;10.83;37.54
20628;BME280;10473;42.734;24.258;2023-02-22T00:10:35;91688.09;;;10.90;37.55
20628;BME280;10473;42.734;24.258;2023-02-22T00:13:06;91683.47;;;10.73;38.08
20628;BME280;10473;42.734;24.258;2023-02-22T00:15:36;91686.94;;;10.84;36.93
20628;BME280;10473;42.734;24.258;2023-02-22T00:18:07;91696.41;;;10.85;37.50
20628;BME280;10473;42.734;24.258;2023-02-22T00:20:36;91704.34;;;10.78;37.46
20628;BME280;10473;42.734;24.258;2023-02-22T00:23:05;91672.47;;;10.71;35.69
20628;BME280;10473;42.734;24.258;2023-02-22T00:25:35;91688.09;;;10.90;36.97
20628;BME280;10473;42.734;24.258;2023-02-22T00:28:03;91694.94;;;10.91;36.37
20628;BME280;10473;42.734;24.258;2023-02-22T00:30:31;91666.91;;;10.90;36.46
20628;BME280;10473;42.734;24.258;2023-02-22T00:33:01;91699.84;;;10.89;36.41
20628;BME280;10473;42.734;24.258;2023-02-22T00:35:32;91696.88;;;11.01;35.20
20628;BME280;10473;42.734;24.258;2023-02-22T00:38:01;91671.88;;;11.02;35.76
20628;BME280;10473;42.734;24.258;2023-02-22T00:40:31;91655.56;;;10.93;37.25
20628;BME280;10473;42.734;24.258;2023-02-22T00:43:00;91693.09;;;10.98;37.54
20628;BME280;10473;42.734;24.258;2023-02-22T00:45:30;91659.00;;;10.97;36.17
20628;BME280;10473;42.734;24.258;2023-02-22T00:47:58;91636.94;;;10.79;36.18
20628;BME280;10473;42.734;24.258;2023-02-22T00:50:29;91653.69;;;10.97;35.66
20628;BME280;10473;42.734;24.258;2023-02-22T00:52:58;91653.69;;;10.97;35.96
20628;BME280;10473;42.734;24.258;2023-02-22T00:55:28;91625.31;;;11.01;36.01
20628;BME280;10473;42.734;24.258;2023-02-22T00:57:56;91623.03;;;10.99;36.56
20628;BME280;10473;42.734;24.258;2023-02-22T01:00:26;91641.59;;;10.99;36.02
20628;BME280;10473;42.734;24.258;2023-02-22T01:02:55;91645.81;;;11.14;37.15
20628;BME280;10473;42.734;24.258;2023-02-22T01:05:28;91656.78;;;11.13;36.90
20628;BME280;10473;42.734;24.258;2023-02-22T01:07:57;91653.03;;;11.24;37.33
20628;BME280;10473;42.734;24.258;2023-02-22T01:10:28;91664.38;;;11.25;37.85
20628;BME280;10473;42.734;24.258;2023-02-22T01:12:58;91667.44;;;11.34;38.28
20628;BME280;10473;42.734;24.258;2023-02-22T01:15:28;91646.19;;;11.20;38.07
20628;BME280;10473;42.734;24.258;2023-02-22T01:17:57;91655.31;;;11.36;38.11
20628;BME280;10473;42.734;24.258;2023-02-22T01:20:27;91661.41;;;11.40;38.35
20628;BME280;10473;42.734;24.258;2023-02-22T01:22:57;91619.34;;;11.39;39.28
20628;BME280;10473;42.734;24.258;2023-02-22T01:25:27;91655.00;;;11.52;39.53
20628;BME280;10473;42.734;24.258;2023-02-22T01:27:56;91651.56;;;11.48;37.84
20628;BME280;10473;42.734;24.258;2023-02-22T01:30:26;91629.94;;;11.42;37.30
20628;BME280;10473;42.734;24.258;2023-02-22T01:32:54;91641.31;;;11.43;37.97
20628;BME280;10473;42.734;24.258;2023-02-22T01:35:26;91627.25;;;11.18;37.59
20628;BME280;10473;42.734;24.258;2023-02-22T01:37:56;91626.09;;;11.15;38.20
20628;BME280;10473;42.734;24.258;2023-02-22T01:40:27;91612.75;;;10.84;38.47
20628;BME280;10473;42.734;24.258;2023-02-22T01:42:57;91635.38;;;10.71;38.54
20628;BME280;10473;42.734;24.258;2023-02-22T01:45:53;91633.84;;;10.63;40.33
20628;BME280;10473;42.734;24.258;2023-02-22T01:48:27;91633.03;;;10.52;39.90
20628;BME280;10473;42.734;24.258;2023-02-22T01:50:59;91648.31;;;10.83;39.44
20628;BME280;10473;42.734;24.258;2023-02-22T01:53:33;91609.72;;;10.82;38.86
20628;BME280;10473;42.734;24.258;2023-02-22T01:56:05;91637.75;;;10.90;39.26
20628;BME280;10473;42.734;24.258;2023-02-22T01:58:35;91584.66;;;10.65;39.85
20628;BME280;10473;42.734;24.258;2023-02-22T02:01:05;91614.88;;;10.57;40.68
20628;BME280;10473;42.734;24.258;2023-02-22T02:03:35;91622.88;;;10.64;40.58
20628;BME280;10473;42.734;24.258;2023-02-22T02:06:07;91605.06;;;10.61;41.25
20628;BME280;10473;42.734;24.258;2023-02-22T02:08:45;91606.16;;;10.53;41.08
20628;BME280;10473;42.734;24.258;2023-02-22T02:11:18;91597.03;;;10.44;41.24
20628;BME280;10473;42.734;24.258;2023-02-22T02:13:49;91627.75;;;10.52;41.14
20628;BME280;10473;42.734;24.258;2023-02-22T02:16:17;91642.19;;;10.68;41.07
20628;BME280;10473;42.734;24.258;2023-02-22T02:18:47;91612.25;;;10.61;40.66
20628;BME280;10473;42.734;24.258;2023-02-22T02:21:38;91612.69;;;10.70;40.37
20628;BME280;10473;42.734;24.258;2023-02-22T02:24:32;91626.34;;;10.82;40.90
20628;BME280;10473;42.734;24.258;2023-02-22T02:27:21;91629.00;;;10.79;41.23
20628;BME280;10473;42.734;24.258;2023-02-22T02:33:04;91637.72;;;10.86;41.30
20628;BME280;10473;42.734;24.258;2023-02-22T02:35:45;91643.81;;;10.87;41.88
20628;BME280;10473;42.734;24.258;2023-02-22T02:38:22;91650.63;;;10.91;41.77
20628;BME280;10473;42.734;24.258;2023-02-22T02:41:00;91648.38;;;10.97;41.80
20628;BME280;10473;42.734;24.258;2023-02-22T02:43:34;91654.47;;;11.04;41.69
20628;BME280;10473;42.734;24.258;2023-02-22T02:46:06;91655.22;;;11.01;42.22
20628;BME280;10473;42.734;24.258;2023-02-22T02:48:40;91648.38;;;10.97;41.41
20628;BME280;10473;42.734;24.258;2023-02-22T02:51:10;91621.47;;;10.84;42.55
20628;BME280;10473;42.734;24.258;2023-02-22T02:53:42;91662.75;;;10.92;42.49
20628;BME280;10473;42.734;24.258;2023-02-22T02:56:11;91666.59;;;10.98;42.42
20628;BME280;10473;42.734;24.258;2023-02-22T02:58:44;91666.97;;;11.00;42.09
20628;BME280;10473;42.734;24.258;2023-02-22T03:01:21;91671.88;;;11.02;41.88
20628;BME280;10473;42.734;24.258;2023-02-22T03:04:22;91673.41;;;11.10;41.65
20628;BME280;10473;42.734;24.258;2023-02-22T03:09:54;91657.50;;;11.03;42.59
20628;BME280;10473;42.734;24.258;2023-02-22T03:12:34;91664.66;;;10.92;42.67
20628;BME280;10473;42.734;24.258;2023-02-22T03:15:11;91663.16;;;11.01;42.46
20628;BME280;10473;42.734;24.258;2023-02-22T03:17:46;91662.00;;;10.92;42.77
20628;BME280;10473;42.734;24.258;2023-02-22T03:20:24;91660.81;;;10.86;42.86
20628;BME280;10473;42.734;24.258;2023-02-22T03:23:02;91666.13;;;10.86;43.08
20628;BME280;10473;42.734;24.258;2023-02-22T03:25:35;91665.31;;;10.75;43.79
20628;BME280;10473;42.734;24.258;2023-02-22T03:28:07;91678.56;;;10.78;43.67
20628;BME280;10473;42.734;24.258;2023-02-22T03:30:41;91690.72;;;10.83;43.99
20628;BME280;10473;42.734;24.258;2023-02-22T03:33:16;91681.63;;;10.77;44.14
20628;BME280;10473;42.734;24.258;2023-02-22T03:35:50;91695.25;;;10.79;43.97
20628;BME280;10473;42.734;24.258;2023-02-22T03:38:25;91683.16;;;10.81;44.11
20628;BME280;10473;42.734;24.258;2023-02-22T03:40:58;91670.69;;;10.89;43.60
20628;BME280;10473;42.734;24.258;2023-02-22T03:43:30;91690.84;;;11.07;43.60
20628;BME280;10473;42.734;24.258;2023-02-22T03:46:01;91684.00;;;11.03;44.09
20628;BME280;10473;42.734;24.258;2023-02-22T03:48:35;91704.13;;;11.11;44.21
20628;BME280;10473;42.734;24.258;2023-02-22T03:51:07;91706.78;;;11.11;43.72
20628;BME280;10473;42.734;24.258;2023-02-22T03:53:35;91700.69;;;11.10;43.56
20628;BME280;10473;42.734;24.258;2023-02-22T03:56:06;91697.31;;;11.17;44.01
20628;BME280;10473;42.734;24.258;2023-02-22T03:58:38;91705.22;;;11.10;44.00
20628;BME280;10473;42.734;24.258;2023-02-22T04:01:10;91680.94;;;10.94;43.56
20628;BME280;10473;42.734;24.258;2023-02-22T04:03:37;91697.63;;;11.05;43.85
20628;BME280;10473;42.734;24.258;2023-02-22T04:06:09;91695.31;;;10.93;44.33
20628;BME280;10473;42.734;24.258;2023-02-22T04:08:37;91699.06;;;10.85;45.01
20628;BME280;10473;42.734;24.258;2023-02-22T04:11:07;91683.56;;;10.90;44.30
20628;BME280;10473;42.734;24.258;2023-02-22T04:13:34;91702.81;;;10.77;45.48
20628;BME280;10473;42.734;24.258;2023-02-22T04:16:02;91703.63;;;10.84;44.73
20628;BME280;10473;42.734;24.258;2023-02-22T04:18:30;91703.63;;;10.91;44.80
20628;BME280;10473;42.734;24.258;2023-02-22T04:20:59;91682.78;;;10.83;44.93
20628;BME280;10473;42.734;24.258;2023-02-22T04:23:40;91711.53;;;10.81;45.11
20628;BME280;10473;42.734;24.258;2023-02-22T04:26:08;91693.31;;;10.76;45.16
20628;BME280;10473;42.734;24.258;2023-02-22T04:28:35;91706.63;;;10.79;44.66
20628;BME280;10473;42.734;24.258;2023-02-22T04:31:15;91700.13;;;10.73;45.24
20628;BME280;10473;42.734;24.258;2023-02-22T04:33:46;91702.03;;;10.76;44.94
20628;BME280;10473;42.734;24.258;2023-02-22T04:36:17;91704.34;;;10.78;44.85
20628;BME280;10473;42.734;24.258;2023-02-22T04:38:48;91702.00;;;10.69;45.06
20628;BME280;10473;42.734;24.258;2023-02-22T04:41:16;91706.19;;;10.70;45.08
20628;BME280;10473;42.734;24.258;2023-02-22T04:43:44;91695.50;;;10.60;45.10
20628;BME280;10473;42.734;24.258;2023-02-22T04:46:18;91708.03;;;10.63;45.47
20628;BME280;10473;42.734;24.258;2023-02-22T04:48:46;91713.34;;;10.70;45.67
20628;BME280;10473;42.734;24.258;2023-02-22T04:51:16;91711.38;;;10.53;45.94
20628;BME280;10473;42.734;24.258;2023-02-22T04:54:05;91705.66;;;10.51;46.26
20628;BME280;10473;42.734;24.258;2023-02-22T04:56:34;91710.03;;;10.26;46.54
20628;BME280;10473;42.734;24.258;2023-02-22T04:59:02;91698.88;;;10.03;47.38
20628;BME280;10473;42.734;24.258;2023-02-22T05:01:31;91706.22;;;10.20;46.58
20628;BME280;10473;42.734;24.258;2023-02-22T05:04:01;91701.78;;;9.94;46.95
20628;BME280;10473;42.734;24.258;2023-02-22T05:06:29;91710.66;;;10.09;46.61
20628;BME280;10473;42.734;24.258;2023-02-22T05:08:56;91709.09;;;10.04;46.72
20628;BME280;10473;42.734;24.258;2023-02-22T05:11:26;91714.31;;;9.97;47.38
20628;BME280;10473;42.734;24.258;2023-02-22T05:13:54;91713.09;;;9.88;47.06
20628;BME280;10473;42.734;24.258;2023-02-22T05:16:22;91711.78;;;9.68;46.91
20628;BME280;10473;42.734;24.258;2023-02-22T05:18:49;91723.56;;;9.77;46.79
20628;BME280;10473;42.734;24.258;2023-02-22T05:21:17;91706.38;;;9.57;47.42
20628;BME280;10473;42.734;24.258;2023-02-22T05:23:45;91724.59;;;9.66;46.85
20628;BME280;10473;42.734;24.258;2023-02-22T05:26:12;91707.06;;;9.51;47.05
20628;BME280;10473;42.734;24.258;2023-02-22T05:28:41;91734.97;;;9.45;47.35
20628;BME280;10473;42.734;24.258;2023-02-22T05:31:09;91726.69;;;9.50;47.87
20628;BME280;10473;42.734;24.258;2023-02-22T05:33:37;91733.88;;;9.49;47.30
20628;BME280;10473;42.734;24.258;2023-02-22T05:36:06;91734.16;;;9.41;47.75
20628;BME280;10473;42.734;24.258;2023-02-22T05:38:35;91738.72;;;9.44;48.01
20628;BME280;10473;42.734;24.258;2023-02-22T05:41:09;91736.66;;;9.63;47.94
20628;BME280;10473;42.734;24.258;2023-02-22T05:43:37;91748.28;;;9.92;46.77
20628;BME280;10473;42.734;24.258;2023-02-22T05:46:07;91744.78;;;10.21;45.74
20628;BME280;10473;42.734;24.258;2023-02-22T05:48:35;91752.97;;;10.52;45.68
20628;BME280;10473;42.734;24.258;2023-02-22T05:51:07;91750.56;;;10.87;45.58
20628;BME280;10473;42.734;24.258;2023-02-22T05:53:36;91754.53;;;11.18;44.77
20628;BME280;10473;42.734;24.258;2023-02-22T05:56:04;91749.34;;;11.46;43.31
20628;BME280;10473;42.734;24.258;2023-02-22T05:58:33;91765.06;;;11.86;43.52
20628;BME280;10473;42.734;24.258;2023-02-22T06:01:00;91762.41;;;11.82;42.71
20628;BME280;10473;42.734;24.258;2023-02-22T06:03:29;91763.94;;;12.01;41.75
20628;BME280;10473;42.734;24.258;2023-02-22T06:05:57;91764.38;;;12.41;41.26
20628;BME280;10473;42.734;24.258;2023-02-22T06:08:25;91767.44;;;12.54;41.22
20628;BME280;10473;42.734;24.258;2023-02-22T06:10:52;91770.06;;;12.50;41.27
20628;BME280;10473;42.734;24.258;2023-02-22T06:13:20;91783.34;;;12.68;40.83
20628;BME280;10473;42.734;24.258;2023-02-22T06:15:48;91775.38;;;12.89;40.95
20628;BME280;10473;42.734;24.258;2023-02-22T06:18:15;91780.69;;;13.10;40.64
20628;BME280;10473;42.734;24.258;2023-02-22T06:20:45;91784.44;;;13.37;40.06
20628;BME280;10473;42.734;24.258;2023-02-22T06:23:12;91797.28;;;13.66;40.33
20628;BME280;10473;42.734;24.258;2023-02-22T06:25:40;91778.56;;;13.84;38.99
20628;BME280;10473;42.734;24.258;2023-02-22T06:28:08;91781.97;;;13.88;38.27
20628;BME280;10473;42.734;24.258;2023-02-22T06:30:36;91798.63;;;14.09;38.06
20628;BME280;10473;42.734;24.258;2023-02-22T06:33:04;91794.69;;;14.38;37.49
20628;BME280;10473;42.734;24.258;2023-02-22T06:35:32;91793.59;;;14.29;37.65
20628;BME280;10473;42.734;24.258;2023-02-22T06:38:01;91791.66;;;14.33;36.93
20628;BME280;10473;42.734;24.258;2023-02-22T06:40:29;91800.81;;;14.32;37.62
20628;BME280;10473;42.734;24.258;2023-02-22T06:42:57;91800.47;;;14.19;37.22
20628;BME280;10473;42.734;24.258;2023-02-22T06:45:25;91805.47;;;14.03;38.15
20628;BME280;10473;42.734;24.258;2023-02-22T06:47:53;91805.59;;;13.79;38.35
20628;BME280;10473;42.734;24.258;2023-02-22T06:50:23;91811.75;;;13.58;38.39
20628;BME280;10473;42.734;24.258;2023-02-22T06:56:31;91796.38;;;13.97;38.18
20628;BME280;10473;42.734;24.258;2023-02-22T06:58:58;91812.63;;;14.31;37.76
20628;BME280;10473;42.734;24.258;2023-02-22T07:01:27;91802.06;;;14.71;37.69
20628;BME280;10473;42.734;24.258;2023-02-22T07:03:55;91807.75;;;15.21;36.87
20628;BME280;10473;42.734;24.258;2023-02-22T07:06:23;91805.22;;;15.51;36.20
20628;BME280;10473;42.734;24.258;2023-02-22T07:08:50;91811.47;;;16.04;35.72
20628;BME280;10473;42.734;24.258;2023-02-22T07:11:18;91806.38;;;16.47;34.81
20628;BME280;10473;42.734;24.258;2023-02-22T07:13:48;91802.50;;;17.01;34.07
20628;BME280;10473;42.734;24.258;2023-02-22T07:16:16;91774.13;;;17.07;33.31
20628;BME280;10473;42.734;24.258;2023-02-22T07:18:43;91790.63;;;17.71;33.05
20628;BME280;10473;42.734;24.258;2023-02-22T07:21:11;91793.28;;;18.29;33.09
20628;BME280;10473;42.734;24.258;2023-02-22T07:23:39;91786.78;;;18.50;31.25
20628;BME280;10473;42.734;24.258;2023-02-22T07:26:06;91793.88;;;18.21;31.51
20628;BME280;10473;42.734;24.258;2023-02-22T07:28:34;91781.69;;;18.36;31.39
20628;BME280;10473;42.734;24.258;2023-02-22T07:31:03;91792.63;;;18.45;31.40
20628;BME280;10473;42.734;24.258;2023-02-22T07:33:31;91808.19;;;18.85;31.56
20628;BME280;10473;42.734;24.258;2023-02-22T07:35:59;91805.41;;;19.24;31.05
20628;BME280;10473;42.734;24.258;2023-02-22T07:38:27;91804.81;;;19.33;29.97
20628;BME280;10473;42.734;24.258;2023-02-22T07:40:55;91789.34;;;19.05;30.55
20628;BME280;10473;42.734;24.258;2023-02-22T07:43:24;91781.78;;;19.00;29.86
20628;BME280;10473;42.734;24.258;2023-02-22T07:45:54;91790.75;;;19.09;30.38
20628;BME280;10473;42.734;24.258;2023-02-22T07:48:31;91785.25;;;19.16;30.37
20628;BME280;10473;42.734;24.258;2023-02-22T07:50:59;91797.34;;;19.85;29.31
20628;BME280;10473;42.734;24.258;2023-02-22T07:53:28;91795.34;;;19.73;29.02
20628;BME280;10473;42.734;24.258;2023-02-22T07:55:56;91796.59;;;19.24;29.76
20628;BME280;10473;42.734;24.258;2023-02-22T07:58:25;91796.72;;;19.17;30.55
20628;BME280;10473;42.734;24.258;2023-02-22T08:00:53;91788.84;;;18.94;30.33
20628;BME280;10473;42.734;24.258;2023-02-22T08:03:23;91785.06;;;19.07;30.30
20628;BME280;10473;42.734;24.258;2023-02-22T08:05:54;91788.31;;;19.47;30.67
20628;BME280;10473;42.734;24.258;2023-02-22T08:08:22;91774.16;;;19.75;29.70
20628;BME280;10473;42.734;24.258;2023-02-22T08:10:51;91787.88;;;19.64;29.48
20628;BME280;10473;42.734;24.258;2023-02-22T08:13:20;91787.66;;;19.59;29.01
20628;BME280;10473;42.734;24.258;2023-02-22T08:15:50;91788.56;;;19.97;29.64
20628;BME280;10473;42.734;24.258;2023-02-22T08:18:19;91782.31;;;19.27;29.61
20628;BME280;10473;42.734;24.258;2023-02-22T08:20:49;91785.28;;;19.13;30.12
20628;BME280;10473;42.734;24.258;2023-02-22T08:23:21;91786.16;;;19.42;29.70
20628;BME280;10473;42.734;24.258;2023-02-22T08:25:50;91780.69;;;19.13;30.03
20628;BME280;10473;42.734;24.258;2023-02-22T08:28:20;91786.44;;;19.76;29.42
20628;BME280;10473;42.734;24.258;2023-02-22T08:30:49;91789.69;;;20.40;28.14
20628;BME280;10473;42.734;24.258;2023-02-22T08:33:17;91792.53;;;20.87;27.85
20628;BME280;10473;42.734;24.258;2023-02-22T08:35:46;91799.88;;;20.33;28.80
20628;BME280;10473;42.734;24.258;2023-02-22T08:38:20;91781.06;;;20.45;28.49
20628;BME280;10473;42.734;24.258;2023-02-22T08:40:49;91777.81;;;19.97;29.06
20628;BME280;10473;42.734;24.258;2023-02-22T08:43:18;91782.81;;;20.11;29.16
20628;BME280;10473;42.734;24.258;2023-02-22T08:45:47;91784.19;;;20.56;28.14
20628;BME280;10473;42.734;24.258;2023-02-22T08:48:15;91777.16;;;19.93;29.29
20628;BME280;10473;42.734;24.258;2023-02-22T08:50:44;91766.00;;;19.78;29.22
20628;BME280;10473;42.734;24.258;2023-02-22T08:53:12;91781.22;;;20.26;29.37
20628;BME280;10473;42.734;24.258;2023-02-22T08:55:42;91766.13;;;20.16;29.26
20628;BME280;10473;42.734;24.258;2023-02-22T08:58:10;91775.03;;;20.54;29.25
20628;BME280;10473;42.734;24.258;2023-02-22T09:00:39;91782.84;;;20.89;29.08
20628;BME280;10473;42.734;24.258;2023-02-22T09:03:08;91774.97;;;20.95;29.02
20628;BME280;10473;42.734;24.258;2023-02-22T09:05:38;91776.69;;;21.14;29.89
20628;BME280;10473;42.734;24.258;2023-02-22T09:08:06;91777.19;;;20.46;29.33
20628;BME280;10473;42.734;24.258;2023-02-22T09:10:34;91774.47;;;20.21;29.73
20628;BME280;10473;42.734;24.258;2023-02-22T09:13:03;91774.31;;;20.12;30.20
20628;BME280;10473;42.734;24.258;2023-02-22T09:15:32;91782.69;;;20.43;28.81
20628;BME280;10473;42.734;24.258;2023-02-22T09:18:01;91777.56;;;21.11;28.43
20628;BME280;10473;42.734;24.258;2023-02-22T09:20:29;91772.38;;;21.16;28.53
20628;BME280;10473;42.734;24.258;2023-02-22T09:22:57;91776.69;;;21.14;27.97
20628;BME280;10473;42.734;24.258;2023-02-22T09:25:24;91776.81;;;22.03;27.08
20628;BME280;10473;42.734;24.258;2023-02-22T09:27:55;91768.22;;;22.69;27.60
20628;BME280;10473;42.734;24.258;2023-02-22T09:30:27;91768.22;;;22.60;27.83
20628;BME280;10473;42.734;24.258;2023-02-22T09:32:59;91771.59;;;22.52;27.26
20628;BME280;10473;42.734;24.258;2023-02-22T09:35:27;91768.88;;;22.30;26.94
20628;BME280;10473;42.734;24.258;2023-02-22T09:37:56;91769.56;;;23.35;25.99
20628;BME280;10473;42.734;24.258;2023-02-22T09:40:25;91769.81;;;24.12;25.50
20628;BME280;10473;42.734;24.258;2023-02-22T09:43:12;91764.81;;;23.75;25.04
20628;BME280;10473;42.734;24.258;2023-02-22T09:45:55;91770.69;;;24.54;25.38
20628;BME280;10473;42.734;24.258;2023-02-22T09:48:26;91759.94;;;25.19;24.36
20628;BME280;10473;42.734;24.258;2023-02-22T09:50:58;91760.81;;;24.93;24.21
20628;BME280;10473;42.734;24.258;2023-02-22T09:53:30;91762.84;;;25.72;23.42
20628;BME280;10473;42.734;24.258;2023-02-22T09:56:06;91754.66;;;26.72;21.86
20628;BME280;10473;42.734;24.258;2023-02-22T09:58:39;91763.22;;;26.65;22.14
20628;BME280;10473;42.734;24.258;2023-02-22T10:01:19;91761.97;;;27.09;21.69
20628;BME280;10473;42.734;24.258;2023-02-22T10:03:51;91755.41;;;26.87;21.80
20628;BME280;10473;42.734;24.258;2023-02-22T10:06:23;91753.91;;;26.71;21.67
20628;BME280;10473;42.734;24.258;2023-02-22T10:08:54;91761.75;;;27.62;21.03
20628;BME280;10473;42.734;24.258;2023-02-22T10:11:36;91759.84;;;28.02;20.79
20628;BME280;10473;42.734;24.258;2023-02-22T10:17:14;91752.53;;;29.36;19.78
20628;BME280;10473;42.734;24.258;2023-02-22T10:19:58;91749.03;;;28.79;20.24
20628;BME280;10473;42.734;24.258;2023-02-22T10:22:40;91740.91;;;29.46;19.76
20628;BME280;10473;42.734;24.258;2023-02-22T10:25:13;91728.66;;;28.03;20.52
20628;BME280;10473;42.734;24.258;2023-02-22T10:27:47;91733.00;;;29.12;19.48
20628;BME280;10473;42.734;24.258;2023-02-22T10:30:20;91730.66;;;28.99;19.13
20628;BME280;10473;42.734;24.258;2023-02-22T10:32:53;91739.66;;;29.42;19.29
20628;BME280;10473;42.734;24.258;2023-02-22T10:35:24;91727.56;;;29.17;19.08
20628;BME280;10473;42.734;24.258;2023-02-22T10:37:55;91729.56;;;28.91;19.37
20628;BME280;10473;42.734;24.258;2023-02-22T10:40:25;91721.41;;;28.20;19.60
20628;BME280;10473;42.734;24.258;2023-02-22T10:43:01;91708.69;;;28.37;19.87
20628;BME280;10473;42.734;24.258;2023-02-22T10:45:30;91714.69;;;30.07;19.57
20628;BME280;10473;42.734;24.258;2023-02-22T10:48:03;91704.84;;;30.26;18.04
20628;BME280;10473;42.734;24.258;2023-02-22T10:50:36;91707.47;;;29.20;18.96
20628;BME280;10473;42.734;24.258;2023-02-22T10:53:05;91694.22;;;27.80;19.97
20628;BME280;10473;42.734;24.258;2023-02-22T10:55:33;91693.00;;;28.78;19.26
20628;BME280;10473;42.734;24.258;2023-02-22T10:58:04;91695.88;;;28.69;19.84
20628;BME280;10473;42.734;24.258;2023-02-22T11:00:34;91692.06;;;28.55;19.46
20628;BME280;10473;42.734;24.258;2023-02-22T11:03:15;91687.53;;;28.27;19.85
20628;BME280;10473;42.734;24.258;2023-02-22T11:05:43;91678.25;;;27.93;19.48
20628;BME280;10473;42.734;24.258;2023-02-22T11:08:26;91681.75;;;26.56;20.86
20628;BME280;10473;42.734;24.258;2023-02-22T11:10:55;91678.16;;;27.13;19.80
20628;BME280;10473;42.734;24.258;2023-02-22T11:13:26;91677.69;;;27.69;20.30
20628;BME280;10473;42.734;24.258;2023-02-22T11:15:58;91674.81;;;27.04;20.29
20628;BME280;10473;42.734;24.258;2023-02-22T11:18:33;91671.41;;;26.74;20.68
20628;BME280;10473;42.734;24.258;2023-02-22T11:21:05;91667.56;;;27.15;20.45
20628;BME280;10473;42.734;24.258;2023-02-22T11:23:36;91665.16;;;27.97;20.60
20628;BME280;10473;42.734;24.258;2023-02-22T11:26:07;91663.03;;;28.07;19.79
20628;BME280;10473;42.734;24.258;2023-02-22T11:28:36;91656.19;;;27.51;19.86
20628;BME280;10473;42.734;24.258;2023-02-22T11:31:16;91670.06;;;27.53;19.32
20628;BME280;10473;42.734;24.258;2023-02-22T11:33:50;91656.75;;;28.46;19.70
20628;BME280;10473;42.734;24.258;2023-02-22T11:36:32;91662.56;;;27.28;19.84
20628;BME280;10473;42.734;24.258;2023-02-22T11:39:04;91659.44;;;28.15;19.05
20628;BME280;10473;42.734;24.258;2023-02-22T11:41:36;91654.56;;;28.25;19.37
20628;BME280;10473;42.734;24.258;2023-02-22T11:44:21;91654.41;;;27.48;19.69
20628;BME280;10473;42.734;24.258;2023-02-22T11:46:50;91652.34;;;28.03;19.32
20628;BME280;10473;42.734;24.258;2023-02-22T11:49:23;91651.03;;;26.99;19.82
20628;BME280;10473;42.734;24.258;2023-02-22T11:52:17;91638.03;;;28.34;19.27
20628;BME280;10473;42.734;24.258;2023-02-22T11:55:11;91637.16;;;28.17;19.87
20628;BME280;10473;42.734;24.258;2023-02-22T11:57:55;91636.41;;;28.42;19.53
20628;BME280;10473;42.734;24.258;2023-02-22T12:00:38;91633.75;;;26.38;20.68
20628;BME280;10473;42.734;24.258;2023-02-22T12:03:45;91634.00;;;27.18;21.28
20628;BME280;10473;42.734;24.258;2023-02-22T12:06:25;91642.03;;;27.67;20.55
20628;BME280;10473;42.734;24.258;2023-02-22T12:09:07;91626.97;;;27.32;20.79
20628;BME280;10473;42.734;24.258;2023-02-22T12:11:45;91625.78;;;26.84;21.30
20628;BME280;10473;42.734;24.258;2023-02-22T12:14:23;91630.34;;;27.21;21.22
20628;BME280;10473;42.734;24.258;2023-02-22T12:17:08;91631.69;;;26.62;20.42
20628;BME280;10473;42.734;24.258;2023-02-22T12:19:42;91623.88;;;26.26;21.44
20628;BME280;10473;42.734;24.258;2023-02-22T12:22:16;91624.81;;;24.62;23.03
20628;BME280;10473;42.734;24.258;2023-02-22T12:24:48;91624.69;;;24.47;24.07
20628;BME280;10473;42.734;24.258;2023-02-22T12:27:22;91619.38;;;24.62;23.70
20628;BME280;10473;42.734;24.258;2023-02-22T12:29:57;91621.94;;;24.89;24.04
20628;BME280;10473;42.734;24.258;2023-02-22T12:32:31;91610.75;;;24.31;23.40
20628;BME280;10473;42.734;24.258;2023-02-22T12:35:10;91607.72;;;23.69;24.02
20628;BME280;10473;42.734;24.258;2023-02-22T12:37:50;91584.97;;;22.77;25.02
20628;BME280;10473;42.734;24.258;2023-02-22T12:40:21;91606.59;;;22.77;24.97
20628;BME280;10473;42.734;24.258;2023-02-22T12:42:56;91605.13;;;22.36;25.76
20628;BME280;10473;42.734;24.258;2023-02-22T12:45:31;91607.50;;;21.95;26.32
20628;BME280;10473;42.734;24.258;2023-02-22T12:48:09;91606.66;;;21.64;27.00
20628;BME280;10473;42.734;24.258;2023-02-22T12:50:52;91607.75;;;21.23;27.17
20628;BME280;10473;42.734;24.258;2023-02-22T12:53:25;91603.97;;;20.99;27.86
20628;BME280;10473;42.734;24.258;2023-02-22T12:55:59;91605.63;;;20.72;27.90
20628;BME280;10473;42.734;24.258;2023-02-22T12:58:35;91605.91;;;20.27;28.08
20628;BME280;10473;42.734;24.258;2023-02-22T13:01:10;91604.25;;;19.92;28.57
20628;BME280;10473;42.734;24.258;2023-02-22T13:03:42;91607.47;;;19.87;28.96
20628;BME280;10473;42.734;24.258;2023-02-22T13:09:21;91602.91;;;19.59;29.88
20628;BME280;10473;42.734;24.258;2023-02-22T13:12:00;91606.88;;;19.55;29.85
20628;BME280;10473;42.734;24.258;2023-02-22T13:14:43;91590.22;;;19.47;29.63
20628;BME280;10473;42.734;24.258;2023-02-22T13:17:22;91594.47;;;19.32;29.70
20628;BME280;10473;42.734;24.258;2023-02-22T13:19:58;91603.69;;;19.03;29.45
20628;BME280;10473;42.734;24.258;2023-02-22T13:22:33;91591.16;;;19.12;29.50
20628;BME280;10473;42.734;24.258;2023-02-22T13:25:09;91602.78;;;18.93;29.24
20628;BME280;10473;42.734;24.258;2023-02-22T13:27:42;91603.50;;;19.10;29.30
20628;BME280;10473;42.734;24.258;2023-02-22T13:30:19;91582.59;;;18.89;28.10